CMA CGM Balzac — DIHN — position and weather

sailwx.info

Track history (hours):
 
Tides and Currents Weather Stations Pressure Air Temp Water Temp Dewpoint Dewpoint Depression Visibility Wind Speed Wind Dir Waves Ship Positions

CMA CGM Balzac

Last reported at 2016-Feb-04 23:14 UTC. Time now 2016-Feb-10 08:36 UTC.
Position N 38°18' W 031°01'.

Length 300.3 m; beam 40.3 m; draft 14 m.

Type: Ship. MMSI: 211378810.

Date/timePositionNaut miles runAvg speedWind from/ knotsBaromVisibWave heightAir tempDewpointWater temp
2016-Feb-04 23:14N 38°18' W 031°01'1217.2
2016-Feb-04 22:33N 38°17' W 030°46'1717.2
2016-Feb-04 21:33N 38°16' W 030°25'1717.3
2016-Feb-04 20:33N 38°15' W 030°03'1717.3
2016-Feb-04 19:33N 38°14' W 029°41'1717.3
2016-Feb-04 18:33N 38°13' W 029°19'1717.0
2016-Feb-04 17:34N 38°12' W 028°57'1717.1
2016-Feb-04 16:33N 38°11' W 028°35'1716.5
2016-Feb-04 15:33N 38°10' W 028°14'1717.1
2016-Feb-04 14:33N 38°10' W 027°52'1717.1
2016-Feb-04 13:33N 38°09' W 027°31'1717.1
2016-Feb-04 12:34N 38°09' W 027°09'1717.5
2016-Feb-04 11:34N 38°09' W 026°47'1717.2
2016-Feb-04 10:33N 38°09' W 026°25'1717.0
2016-Feb-04 09:34N 38°08' W 026°03'1717.2
2016-Feb-04 08:34N 38°08' W 025°42'1717.2
2016-Feb-04 07:34N 38°08' W 025°20'1717.0
2016-Feb-04 06:34N 38°07' W 024°58'1717.0
2016-Feb-04 05:34N 38°07' W 024°36'1716.9
2016-Feb-04 04:33N 38°07' W 024°15'1716.9
2016-Feb-04 03:33N 38°07' W 023°53'61717.1
2016-Feb-02 15:33N 37°56' W 010°50'1716.7
2016-Feb-02 14:30N 37°56' W 010°28'1516.2
2016-Feb-02 13:33N 37°55' W 010°08'1715.8
2016-Feb-02 12:30N 37°55' W 009°47'1616.5
2016-Feb-02 11:33N 37°55' W 009°27'1818.4
2016-Feb-02 10:33N 37°54' W 009°04'1110.6
2016-Feb-02 09:33N 37°56' W 008°51'0 0.0
2016-Feb-02 08:33N 37°56' W 008°51'0 0.0
2016-Feb-02 07:32N 37°56' W 008°51'0 0.0
2016-Feb-02 06:32N 37°56' W 008°51'0 0.0
2016-Feb-02 05:31N 37°56' W 008°51'0 0.0
2016-Feb-02 04:31N 37°56' W 008°51'0 0.0
2016-Feb-02 03:33N 37°56' W 008°51'0 0.0
2016-Feb-02 02:33N 37°56' W 008°51'0 0.0
2016-Feb-02 01:27N 37°56' W 008°51'0 0.0
2016-Feb-02 00:33N 37°56' W 008°51'0 0.0
2016-Feb-01 23:33N 37°56' W 008°51'2 1.6
2016-Feb-01 22:33N 37°54' W 008°50'4 3.9
2016-Feb-01 21:33N 37°52' W 008°55'1 1.0
2016-Feb-01 20:33N 37°53' W 008°55'5 4.6
2016-Feb-01 19:32N 37°48' W 008°54'6 6.6
2016-Feb-01 18:33N 37°42' W 008°56'7 6.5
2016-Feb-01 17:33N 37°36' W 008°59'7 6.6
2016-Feb-01 16:33N 37°30' W 009°03'7 6.7
2016-Feb-01 15:33N 37°24' W 009°07'8 6.7
2016-Feb-01 14:24N 37°17' W 009°11'5 6.5
2016-Feb-01 13:33N 37°12' W 009°14'6 6.1
2016-Feb-01 12:33N 37°06' W 009°17'6 6.3
2016-Feb-01 11:33N 37°00' W 009°20'7 5.8
2016-Feb-01 10:19N 36°53' W 009°18'5 6.5
2016-Feb-01 09:33N 36°50' W 009°14'7 6.7
2016-Feb-01 08:33N 36°45' W 009°09'9 9.1
2016-Feb-01 07:33N 36°42' W 008°58'1010.0
2016-Feb-01 06:33N 36°39' W 008°46'1010.3
2016-Feb-01 05:33N 36°35' W 008°34'1010.4
2016-Feb-01 04:33N 36°32' W 008°22'1211.1
2016-Feb-01 03:30N 36°28' W 008°08'1210.0
2016-Feb-01 02:21N 36°24' W 007°54'9310.3
2016-Jan-31 17:16N 35°57' W 006°04'26 9.4
2016-Jan-31 14:33N 35°59' W 005°33'7 7.0
2016-Jan-31 13:33N 36°01' W 005°25'8 7.7
2016-Jan-31 12:34N 36°09' W 005°25'1 0.8
2016-Jan-31 11:33N 36°09' W 005°26'0 0.0
2016-Jan-31 10:32N 36°09' W 005°26'0 0.0
2016-Jan-31 09:25N 36°09' W 005°26'0 0.0
2016-Jan-31 08:31N 36°09' W 005°26'0 0.0
2016-Jan-31 07:30N 36°09' W 005°26'0 0.0
2016-Jan-31 06:33N 36°09' W 005°26'0 0.0
2016-Jan-31 05:29N 36°09' W 005°26'0 0.0
2016-Jan-31 04:32N 36°09' W 005°26'0 0.0
2016-Jan-31 03:31N 36°09' W 005°26'0 0.0
2016-Jan-31 02:28N 36°09' W 005°26'0 0.0
2016-Jan-31 01:28N 36°09' W 005°26'0 0.0
2016-Jan-31 00:33N 36°09' W 005°26'0 0.0
2016-Jan-30 23:33N 36°09' W 005°26'0 0.0
2016-Jan-30 22:33N 36°09' W 005°26'0 0.0
2016-Jan-30 21:33N 36°09' W 005°26'0 0.0
2016-Jan-30 20:33N 36°09' W 005°26'0 0.3
2016-Jan-30 19:33N 36°09' W 005°26'3 2.8
2016-Jan-30 18:32N 36°07' W 005°23'12313.7
2016-Jan-30 09:33N 36°20' W 002°51'1313.1
2016-Jan-30 08:33N 36°22' W 002°35'1414.3
2016-Jan-30 07:33N 36°24' W 002°18'2019.2
2016-Jan-30 06:31N 36°35' W 001°57'1819.1
2016-Jan-30 05:33N 36°47' W 001°39'2619.2
2016-Jan-30 04:12N 37°04' W 001°15'1218.1
2016-Jan-30 03:33N 37°13' W 001°05'1918.9
2016-Jan-30 02:32N 37°25' W 000°46'1818.4
2016-Jan-30 01:33N 37°38' W 000°31'1918.8
2016-Jan-30 00:33N 37°54' W 000°17'9115.0
2016-Jan-29 18:32N 39°24' W 000°14'4 2.9
2016-Jan-29 17:09N 39°26' W 000°19'0 0.0
2016-Jan-29 14:26N 39°26' W 000°19'0 0.0
2016-Jan-29 12:32N 39°26' W 000°19'0 0.0
2016-Jan-29 11:33N 39°26' W 000°19'0 0.0
2016-Jan-29 10:32N 39°26' W 000°19'0 0.0
2016-Jan-29 09:32N 39°26' W 000°19'0 0.0
2016-Jan-29 08:33N 39°26' W 000°19'0 0.0
2016-Jan-29 07:33N 39°26' W 000°19'0 0.0
2016-Jan-29 06:33N 39°26' W 000°19'1 0.8
2016-Jan-29 05:33N 39°26' W 000°18'6 5.6
2016-Jan-29 04:32N 39°26' W 000°11'6017.4
2016-Jan-29 01:03N 39°47' E 001°03'1019.3
2016-Jan-29 00:34N 39°52' E 001°13'1919.4
2016-Jan-28 23:33N 40°02' E 001°35'2019.5
2016-Jan-28 22:33N 40°13' E 001°56'1919.2
2016-Jan-28 21:33N 40°24' E 002°17'1919.0
2016-Jan-28 20:33N 40°34' E 002°38'1919.1
2016-Jan-28 19:33N 40°44' E 002°59'2019.1
2016-Jan-28 18:32N 40°55' E 003°21'13419.0
2016-Jan-28 11:27N 42°09' E 005°51'2019.1
2016-Jan-28 10:24N 42°21' E 006°13'12818.7
2016-Jan-28 03:33N 43°29' E 008°41'1818.4
2016-Jan-28 02:33N 43°38' E 009°02'1918.7
2016-Jan-28 01:33N 43°48' E 009°24'1918.8
2016-Jan-28 00:33N 43°58' E 009°46'9 8.7
2016-Jan-27 23:32N 44°06' E 009°51'0 0.0
2016-Jan-27 22:31N 44°06' E 009°51'0 0.0
2016-Jan-27 21:31N 44°06' E 009°51'0 0.0
2016-Jan-27 20:27N 44°06' E 009°51'0 0.0
2016-Jan-27 19:30N 44°06' E 009°51'0 0.0
2016-Jan-27 18:33N 44°06' E 009°51'0 0.0
2016-Jan-27 17:33N 44°06' E 009°51'0 0.0
2016-Jan-27 16:32N 44°06' E 009°51'0 0.0
2016-Jan-27 15:32N 44°06' E 009°51'0 0.0
2016-Jan-27 14:29N 44°06' E 009°51'0 0.0
2016-Jan-27 13:32N 44°06' E 009°51'0 0.0
2016-Jan-27 12:31N 44°06' E 009°51'0 0.0
2016-Jan-27 11:33N 44°06' E 009°51'0 0.0
2016-Jan-27 10:33N 44°06' E 009°51'0 0.0
2016-Jan-27 09:33N 44°06' E 009°51'0 0.0
2016-Jan-27 08:33N 44°06' E 009°51'0 0.0
2016-Jan-27 07:33N 44°06' E 009°51'0 0.0
2016-Jan-27 06:33N 44°06' E 009°51'0 0.0
2016-Jan-27 05:33N 44°06' E 009°51'0 0.2
2016-Jan-27 04:33N 44°06' E 009°51'5 5.3
2016-Jan-27 03:33N 44°02' E 009°55'0 0.2
2016-Jan-27 02:33N 44°02' E 009°54'4 3.6
2016-Jan-27 01:33N 43°59' E 009°57'0 0.2
2016-Jan-27 00:33N 43°59' E 009°57'0 0.1
2016-Jan-26 23:33N 43°59' E 009°57'0 0.3
2016-Jan-26 22:33N 43°59' E 009°57'0 0.4
2016-Jan-26 21:33N 43°59' E 009°56'3 2.7
2016-Jan-26 20:33N 43°56' E 009°54'8 7.9
2016-Jan-26 19:33N 43°53' E 009°44'8 7.7
2016-Jan-26 18:33N 43°56' E 009°34'8 7.9
2016-Jan-26 17:33N 44°01' E 009°25'8 8.2
2016-Jan-26 16:33N 44°06' E 009°16'9 9.2
2016-Jan-26 15:33N 44°11' E 009°05'1211.6
2016-Jan-26 14:33N 44°17' E 008°51'7 7.0
2016-Jan-26 13:33N 44°21' E 008°44'5 4.8
2016-Jan-26 12:33N 44°25' E 008°47'0 0.0
2016-Jan-26 11:33N 44°25' E 008°47'0 0.0
2016-Jan-26 10:30N 44°25' E 008°47'0 0.0
2016-Jan-26 09:32N 44°25' E 008°47'0 0.0
2016-Jan-26 08:32N 44°25' E 008°47'0 0.0
2016-Jan-26 07:31N 44°25' E 008°47'0 0.0
2016-Jan-26 06:28N 44°25' E 008°47'0 0.0
2016-Jan-26 05:31N 44°25' E 008°47'0 0.0
2016-Jan-26 04:33N 44°25' E 008°47'0 0.0
2016-Jan-26 03:30N 44°25' E 008°47'0 0.0
2016-Jan-26 02:32N 44°25' E 008°47'0 0.0
2016-Jan-26 01:32N 44°25' E 008°47'0 0.0
2016-Jan-26 00:31N 44°25' E 008°47'0 0.0
2016-Jan-25 23:33N 44°25' E 008°47'  
Track history (hours):
 
Tides and Currents Weather Stations Pressure Air Temp Water Temp Dewpoint Dewpoint Depression Visibility Wind Speed Wind Dir Waves Ship Positions

CMA CGM Balzac

Last reported at 2016-Feb-04 23:14 UTC. Time now 2016-Feb-10 08:36 UTC.
Position N 38°18' W 031°01'.

Length 300.3 m; beam 40.3 m; draft 14 m.

Type: Ship. MMSI: 211378810.

Date/timePositionNaut miles runAvg speedWind from/ knotsBaromVisibWave heightAir tempDewpointWater temp
2016-Feb-04 23:14N 38°18' W 031°01'1217.2
2016-Feb-04 22:33N 38°17' W 030°46'1717.2
2016-Feb-04 21:33N 38°16' W 030°25'1717.3
2016-Feb-04 20:33N 38°15' W 030°03'1717.3
2016-Feb-04 19:33N 38°14' W 029°41'1717.3
2016-Feb-04 18:33N 38°13' W 029°19'1717.0
2016-Feb-04 17:34N 38°12' W 028°57'1717.1
2016-Feb-04 16:33N 38°11' W 028°35'1716.5
2016-Feb-04 15:33N 38°10' W 028°14'1717.1
2016-Feb-04 14:33N 38°10' W 027°52'1717.1
2016-Feb-04 13:33N 38°09' W 027°31'1717.1
2016-Feb-04 12:34N 38°09' W 027°09'1717.5
2016-Feb-04 11:34N 38°09' W 026°47'1717.2
2016-Feb-04 10:33N 38°09' W 026°25'1717.0
2016-Feb-04 09:34N 38°08' W 026°03'1717.2
2016-Feb-04 08:34N 38°08' W 025°42'1717.2
2016-Feb-04 07:34N 38°08' W 025°20'1717.0
2016-Feb-04 06:34N 38°07' W 024°58'1717.0
2016-Feb-04 05:34N 38°07' W 024°36'1716.9
2016-Feb-04 04:33N 38°07' W 024°15'1716.9
2016-Feb-04 03:33N 38°07' W 023°53'61717.1
2016-Feb-02 15:33N 37°56' W 010°50'1716.7
2016-Feb-02 14:30N 37°56' W 010°28'1516.2
2016-Feb-02 13:33N 37°55' W 010°08'1715.8
2016-Feb-02 12:30N 37°55' W 009°47'1616.5
2016-Feb-02 11:33N 37°55' W 009°27'1818.4
2016-Feb-02 10:33N 37°54' W 009°04'1110.6
2016-Feb-02 09:33N 37°56' W 008°51'0 0.0
2016-Feb-02 08:33N 37°56' W 008°51'0 0.0
2016-Feb-02 07:32N 37°56' W 008°51'0 0.0
2016-Feb-02 06:32N 37°56' W 008°51'0 0.0
2016-Feb-02 05:31N 37°56' W 008°51'0 0.0
2016-Feb-02 04:31N 37°56' W 008°51'0 0.0
2016-Feb-02 03:33N 37°56' W 008°51'0 0.0
2016-Feb-02 02:33N 37°56' W 008°51'0 0.0
2016-Feb-02 01:27N 37°56' W 008°51'0 0.0
2016-Feb-02 00:33N 37°56' W 008°51'0 0.0
2016-Feb-01 23:33N 37°56' W 008°51'2 1.6
2016-Feb-01 22:33N 37°54' W 008°50'4 3.9
2016-Feb-01 21:33N 37°52' W 008°55'1 1.0
2016-Feb-01 20:33N 37°53' W 008°55'5 4.6
2016-Feb-01 19:32N 37°48' W 008°54'6 6.6
2016-Feb-01 18:33N 37°42' W 008°56'7 6.5
2016-Feb-01 17:33N 37°36' W 008°59'7 6.6
2016-Feb-01 16:33N 37°30' W 009°03'7 6.7
2016-Feb-01 15:33N 37°24' W 009°07'8 6.7
2016-Feb-01 14:24N 37°17' W 009°11'5 6.5
2016-Feb-01 13:33N 37°12' W 009°14'6 6.1
2016-Feb-01 12:33N 37°06' W 009°17'6 6.3
2016-Feb-01 11:33N 37°00' W 009°20'7 5.8
2016-Feb-01 10:19N 36°53' W 009°18'5 6.5
2016-Feb-01 09:33N 36°50' W 009°14'7 6.7
2016-Feb-01 08:33N 36°45' W 009°09'9 9.1
2016-Feb-01 07:33N 36°42' W 008°58'1010.0
2016-Feb-01 06:33N 36°39' W 008°46'1010.3
2016-Feb-01 05:33N 36°35' W 008°34'1010.4
2016-Feb-01 04:33N 36°32' W 008°22'1211.1
2016-Feb-01 03:30N 36°28' W 008°08'1210.0
2016-Feb-01 02:21N 36°24' W 007°54'9310.3
2016-Jan-31 17:16N 35°57' W 006°04'26 9.4
2016-Jan-31 14:33N 35°59' W 005°33'7 7.0
2016-Jan-31 13:33N 36°01' W 005°25'8 7.7
2016-Jan-31 12:34N 36°09' W 005°25'1 0.8
2016-Jan-31 11:33N 36°09' W 005°26'0 0.0
2016-Jan-31 10:32N 36°09' W 005°26'0 0.0
2016-Jan-31 09:25N 36°09' W 005°26'0 0.0
2016-Jan-31 08:31N 36°09' W 005°26'0 0.0
2016-Jan-31 07:30N 36°09' W 005°26'0 0.0
2016-Jan-31 06:33N 36°09' W 005°26'0 0.0
2016-Jan-31 05:29N 36°09' W 005°26'0 0.0
2016-Jan-31 04:32N 36°09' W 005°26'0 0.0
2016-Jan-31 03:31N 36°09' W 005°26'0 0.0
2016-Jan-31 02:28N 36°09' W 005°26'0 0.0
2016-Jan-31 01:28N 36°09' W 005°26'0 0.0
2016-Jan-31 00:33N 36°09' W 005°26'0 0.0
2016-Jan-30 23:33N 36°09' W 005°26'0 0.0
2016-Jan-30 22:33N 36°09' W 005°26'0 0.0
2016-Jan-30 21:33N 36°09' W 005°26'0 0.0
2016-Jan-30 20:33N 36°09' W 005°26'0 0.3
2016-Jan-30 19:33N 36°09' W 005°26'3 2.8
2016-Jan-30 18:32N 36°07' W 005°23'12313.7
2016-Jan-30 09:33N 36°20' W 002°51'1313.1
2016-Jan-30 08:33N 36°22' W 002°35'1414.3
2016-Jan-30 07:33N 36°24' W 002°18'2019.2
2016-Jan-30 06:31N 36°35' W 001°57'1819.1
2016-Jan-30 05:33N 36°47' W 001°39'2619.2
2016-Jan-30 04:12N 37°04' W 001°15'1218.1
2016-Jan-30 03:33N 37°13' W 001°05'1918.9
2016-Jan-30 02:32N 37°25' W 000°46'1818.4
2016-Jan-30 01:33N 37°38' W 000°31'1918.8
2016-Jan-30 00:33N 37°54' W 000°17'9115.0
2016-Jan-29 18:32N 39°24' W 000°14'4 2.9
2016-Jan-29 17:09N 39°26' W 000°19'0 0.0
2016-Jan-29 14:26N 39°26' W 000°19'0 0.0
2016-Jan-29 12:32N 39°26' W 000°19'0 0.0
2016-Jan-29 11:33N 39°26' W 000°19'0 0.0
2016-Jan-29 10:32N 39°26' W 000°19'0 0.0
2016-Jan-29 09:32N 39°26' W 000°19'0 0.0
2016-Jan-29 08:33N 39°26' W 000°19'0 0.0
2016-Jan-29 07:33N 39°26' W 000°19'0 0.0
2016-Jan-29 06:33N 39°26' W 000°19'1 0.8
2016-Jan-29 05:33N 39°26' W 000°18'6 5.6
2016-Jan-29 04:32N 39°26' W 000°11'6017.4
2016-Jan-29 01:03N 39°47' E 001°03'1019.3
2016-Jan-29 00:34N 39°52' E 001°13'1919.4
2016-Jan-28 23:33N 40°02' E 001°35'2019.5
2016-Jan-28 22:33N 40°13' E 001°56'1919.2
2016-Jan-28 21:33N 40°24' E 002°17'1919.0
2016-Jan-28 20:33N 40°34' E 002°38'1919.1
2016-Jan-28 19:33N 40°44' E 002°59'2019.1
2016-Jan-28 18:32N 40°55' E 003°21'13419.0
2016-Jan-28 11:27N 42°09' E 005°51'2019.1
2016-Jan-28 10:24N 42°21' E 006°13'12818.7
2016-Jan-28 03:33N 43°29' E 008°41'1818.4
2016-Jan-28 02:33N 43°38' E 009°02'1918.7
2016-Jan-28 01:33N 43°48' E 009°24'1918.8
2016-Jan-28 00:33N 43°58' E 009°46'9 8.7
2016-Jan-27 23:32N 44°06' E 009°51'0 0.0
2016-Jan-27 22:31N 44°06' E 009°51'0 0.0
2016-Jan-27 21:31N 44°06' E 009°51'0 0.0
2016-Jan-27 20:27N 44°06' E 009°51'0 0.0
2016-Jan-27 19:30N 44°06' E 009°51'0 0.0
2016-Jan-27 18:33N 44°06' E 009°51'0 0.0
2016-Jan-27 17:33N 44°06' E 009°51'0 0.0
2016-Jan-27 16:32N 44°06' E 009°51'0 0.0
2016-Jan-27 15:32N 44°06' E 009°51'0 0.0
2016-Jan-27 14:29N 44°06' E 009°51'0 0.0
2016-Jan-27 13:32N 44°06' E 009°51'0 0.0
2016-Jan-27 12:31N 44°06' E 009°51'0 0.0
2016-Jan-27 11:33N 44°06' E 009°51'0 0.0
2016-Jan-27 10:33N 44°06' E 009°51'0 0.0
2016-Jan-27 09:33N 44°06' E 009°51'0 0.0
2016-Jan-27 08:33N 44°06' E 009°51'0 0.0
2016-Jan-27 07:33N 44°06' E 009°51'0 0.0
2016-Jan-27 06:33N 44°06' E 009°51'0 0.0
2016-Jan-27 05:33N 44°06' E 009°51'0 0.2
2016-Jan-27 04:33N 44°06' E 009°51'5 5.3
2016-Jan-27 03:33N 44°02' E 009°55'0 0.2
2016-Jan-27 02:33N 44°02' E 009°54'4 3.6
2016-Jan-27 01:33N 43°59' E 009°57'0 0.2
2016-Jan-27 00:33N 43°59' E 009°57'0 0.1
2016-Jan-26 23:33N 43°59' E 009°57'0 0.3
2016-Jan-26 22:33N 43°59' E 009°57'0 0.4
2016-Jan-26 21:33N 43°59' E 009°56'3 2.7
2016-Jan-26 20:33N 43°56' E 009°54'8 7.9
2016-Jan-26 19:33N 43°53' E 009°44'8 7.7
2016-Jan-26 18:33N 43°56' E 009°34'8 7.9
2016-Jan-26 17:33N 44°01' E 009°25'8 8.2
2016-Jan-26 16:33N 44°06' E 009°16'9 9.2
2016-Jan-26 15:33N 44°11' E 009°05'1211.6
2016-Jan-26 14:33N 44°17' E 008°51'7 7.0
2016-Jan-26 13:33N 44°21' E 008°44'5 4.8
2016-Jan-26 12:33N 44°25' E 008°47'0 0.0
2016-Jan-26 11:33N 44°25' E 008°47'0 0.0
2016-Jan-26 10:30N 44°25' E 008°47'0 0.0
2016-Jan-26 09:32N 44°25' E 008°47'0 0.0
2016-Jan-26 08:32N 44°25' E 008°47'0 0.0
2016-Jan-26 07:31N 44°25' E 008°47'0 0.0
2016-Jan-26 06:28N 44°25' E 008°47'0 0.0
2016-Jan-26 05:31N 44°25' E 008°47'0 0.0
2016-Jan-26 04:33N 44°25' E 008°47'0 0.0
2016-Jan-26 03:30N 44°25' E 008°47'0 0.0
2016-Jan-26 02:32N 44°25' E 008°47'0 0.0
2016-Jan-26 01:32N 44°25' E 008°47'0 0.0
2016-Jan-26 00:31N 44°25' E 008°47'0 0.0
2016-Jan-25 23:33N 44°25' E 008°47'  

Dump ship's entire track history